Time;durP1;ratioP1;P1;durP2;ratioP2;P2;SDS_P1;SDS_P2;PMS_P1;PMS_P2;Temp;Humidity;BMP_temperature;BMP_pressure;BME280_temperature;BME280_humidity;BME280_pressure;Samples;Min_cycle;Max_cycle;Signal;HPM_P1;HPM_P2
2024/02/02 00:02:13;;;;;;;33.88;8.73;;;;;;;;;;5073956;28;20025;-80
2024/02/02 00:04:39;;;;;;;33.17;8.10;;;;;;;;;;5073794;28;20025;-78
2024/02/02 00:07:05;;;;;;;26.73;7.97;;;;;;;;;;5073336;28;20049;-78
2024/02/02 00:09:31;;;;;;;34.75;8.65;;;;;;;;;;5074740;28;20048;-77
2024/02/02 00:11:57;;;;;;;37.63;9.05;;;;;;;;;;5074609;28;20032;-77
2024/02/02 00:14:24;;;;;;;37.67;9.68;;;;;;;;;;5074689;28;20024;-77
2024/02/02 00:16:50;;;;;;;31.70;8.30;;;;;;;;;;5073607;28;20530;-78
2024/02/02 00:19:17;;;;;;;33.53;10.13;;;;;;;;;;5073288;28;20119;-79
2024/02/02 00:21:43;;;;;;;31.02;7.65;;;;;;;;;;5073165;28;20422;-78
2024/02/02 00:24:09;;;;;;;27.55;8.07;;;;;;;;;;5072959;28;20078;-78
2024/02/02 00:26:35;;;;;;;32.70;8.88;;;;;;;;;;5073135;28;20082;-78
2024/02/02 00:29:01;;;;;;;37.20;8.50;;;;;;;;;;5072850;28;20025;-79
2024/02/02 00:31:27;;;;;;;33.60;9.50;;;;;;;;;;5074130;28;20384;-78
2024/02/02 00:33:53;;;;;;;32.95;8.93;;;;;;;;;;5072904;28;20031;-78
2024/02/02 00:36:19;;;;;;;35.70;10.52;;;;;;;;;;5072980;28;20119;-78
2024/02/02 00:38:45;;;;;;;26.52;8.75;;;;;;;;;;5072923;28;20539;-78
2024/02/02 00:41:11;;;;;;;31.98;10.30;;;;;;;;;;5072718;28;20024;-79
2024/02/02 00:43:37;;;;;;;36.35;11.68;;;;;;;;;;5072852;28;20024;-79
2024/02/02 00:46:03;;;;;;;29.90;9.57;;;;;;;;;;5072557;28;20031;-80
2024/02/02 00:48:29;;;;;;;38.75;11.00;;;;;;;;;;5072968;28;20471;-80
2024/02/02 00:50:55;;;;;;;31.80;10.48;;;;;;;;;;5072524;28;20028;-80
2024/02/02 00:53:21;;;;;;;37.67;11.20;;;;;;;;;;5072449;28;20032;-78
2024/02/02 00:55:47;;;;;;;33.20;10.43;;;;;;;;;;5072627;28;20035;-80
2024/02/02 00:58:13;;;;;;;34.03;10.43;;;;;;;;;;5072343;28;20025;-80
2024/02/02 01:00:40;;;;;;;30.42;10.02;;;;;;;;;;5072540;28;20029;-79
2024/02/02 01:03:06;;;;;;;40.15;12.60;;;;;;;;;;5072258;28;20024;-78
2024/02/02 01:05:32;;;;;;;45.00;12.43;;;;;;;;;;5072370;28;20025;-78
2024/02/02 01:07:58;;;;;;;41.88;11.68;;;;;;;;;;5071817;28;20056;-77
2024/02/02 01:10:24;;;;;;;35.15;11.23;;;;;;;;;;5071773;28;20095;-77
2024/02/02 01:12:50;;;;;;;26.27;10.05;;;;;;;;;;5073921;28;20479;-78
2024/02/02 01:15:16;;;;;;;44.10;13.13;;;;;;;;;;5072133;28;20029;-78
2024/02/02 01:17:45;;;;;;;33.30;11.93;;;;;;;;;;5072111;28;20190;-77
2024/02/02 01:20:13;;;;;;;29.63;10.85;;;;;;;;;;5071861;28;20360;-78
2024/02/02 01:22:39;;;;;;;36.20;10.15;;;;;;;;;;5071980;28;20024;-78
2024/02/02 01:25:06;;;;;;;36.08;10.98;;;;;;;;;;5071925;28;20069;-80
2024/02/02 01:27:33;;;;;;;38.22;10.93;;;;;;;;;;5073036;28;20028;-79
2024/02/02 01:29:59;;;;;;;39.50;11.00;;;;;;;;;;5071665;28;20085;-78
2024/02/02 01:32:25;;;;;;;35.30;11.90;;;;;;;;;;5071915;28;20024;-79
2024/02/02 01:34:51;;;;;;;31.48;10.00;;;;;;;;;;5071868;28;20028;-79
2024/02/02 01:37:18;;;;;;;33.33;9.98;;;;;;;;;;5071544;28;20035;-78
2024/02/02 01:39:44;;;;;;;32.13;10.30;;;;;;;;;;5071926;28;20441;-79
2024/02/02 01:42:10;;;;;;;33.80;9.82;;;;;;;;;;5071468;28;20024;-78
2024/02/02 01:44:37;;;;;;;34.83;10.00;;;;;;;;;;5071617;28;20024;-79
2024/02/02 01:47:04;;;;;;;34.90;9.98;;;;;;;;;;5071285;28;20025;-78
2024/02/02 01:49:30;;;;;;;40.35;9.80;;;;;;;;;;5071207;28;20028;-77
2024/02/02 01:51:56;;;;;;;34.50;9.82;;;;;;;;;;5071370;28;20031;-78
2024/02/02 01:54:23;;;;;;;36.42;10.07;;;;;;;;;;5071564;28;20025;-78
2024/02/02 01:56:49;;;;;;;28.50;8.13;;;;;;;;;;5071405;28;20093;-78
2024/02/02 01:59:15;;;;;;;31.80;9.88;;;;;;;;;;5071077;28;20038;-78
2024/02/02 02:01:42;;;;;;;27.92;8.00;;;;;;;;;;5071312;28;20035;-77
2024/02/02 02:04:08;;;;;;;28.05;7.93;;;;;;;;;;5071070;28;20448;-77
2024/02/02 02:06:35;;;;;;;25.95;7.47;;;;;;;;;;5071272;28;20482;-77
2024/02/02 02:09:02;;;;;;;23.10;7.88;;;;;;;;;;5071012;28;20044;-77
2024/02/02 02:11:28;;;;;;;32.28;8.68;;;;;;;;;;5072507;28;20017;-78
2024/02/02 02:13:54;;;;;;;28.58;7.38;;;;;;;;;;5071192;28;20020;-78
2024/02/02 02:16:20;;;;;;;28.90;8.98;;;;;;;;;;5071163;28;20059;-79
2024/02/02 02:18:47;;;;;;;29.92;8.10;;;;;;;;;;5071431;28;20058;-79
2024/02/02 02:21:25;;;;;;;28.02;8.95;;;;;;;;;;5070079;28;20070;-79
2024/02/02 02:23:51;;;;;;;28.60;7.78;;;;;;;;;;5072610;28;20104;-79
2024/02/02 02:26:18;;;;;;;33.50;8.07;;;;;;;;;;5072991;28;20028;-78
2024/02/02 02:28:44;;;;;;;25.70;7.97;;;;;;;;;;5072719;28;20020;-77
2024/02/02 02:31:12;;;;;;;26.85;8.18;;;;;;;;;;5072922;28;20309;-77
2024/02/02 02:33:38;;;;;;;37.55;10.25;;;;;;;;;;5072555;28;20345;-77
2024/02/02 02:36:04;;;;;;;28.95;8.60;;;;;;;;;;5071061;28;20384;-78
2024/02/02 02:38:30;;;;;;;20.23;6.78;;;;;;;;;;5072534;28;20098;-79
2024/02/02 02:40:56;;;;;;;22.38;7.70;;;;;;;;;;5070929;28;20027;-79
2024/02/02 02:43:22;;;;;;;36.85;9.32;;;;;;;;;;5070939;28;20024;-79
2024/02/02 02:45:48;;;;;;;28.15;7.63;;;;;;;;;;5070870;28;20021;-79
2024/02/02 02:48:14;;;;;;;30.05;8.32;;;;;;;;;;5070683;28;20480;-79
2024/02/02 02:50:40;;;;;;;31.73;7.55;;;;;;;;;;5070842;28;20032;-79
2024/02/02 02:53:06;;;;;;;34.75;11.55;;;;;;;;;;5070657;28;20028;-78
2024/02/02 02:55:32;;;;;;;31.15;9.00;;;;;;;;;;5070688;28;20028;-78
2024/02/02 02:57:58;;;;;;;33.33;8.18;;;;;;;;;;5070506;28;20029;-80
2024/02/02 03:00:27;;;;;;;29.85;8.35;;;;;;;;;;5070778;28;20492;-80
2024/02/02 03:02:54;;;;;;;31.80;10.38;;;;;;;;;;5070911;28;20017;-79
2024/02/02 03:05:20;;;;;;;26.75;8.50;;;;;;;;;;5071975;28;20016;-77
2024/02/02 03:07:46;;;;;;;35.38;9.85;;;;;;;;;;5071733;28;20067;-75
2024/02/02 03:10:13;;;;;;;27.25;9.93;;;;;;;;;;5071732;28;20016;-78
2024/02/02 03:12:39;;;;;;;32.33;9.55;;;;;;;;;;5070527;28;20021;-76
2024/02/02 03:15:05;;;;;;;24.90;8.43;;;;;;;;;;5070336;28;20021;-79
2024/02/02 03:17:31;;;;;;;32.00;10.00;;;;;;;;;;5070366;28;20533;-78
2024/02/02 03:19:57;;;;;;;25.35;8.50;;;;;;;;;;5070320;28;20028;-77
2024/02/02 03:22:23;;;;;;;39.33;10.35;;;;;;;;;;5070144;28;20028;-77
2024/02/02 03:24:49;;;;;;;25.92;8.38;;;;;;;;;;5070461;28;20055;-77
2024/02/02 03:27:15;;;;;;;28.65;9.75;;;;;;;;;;5071255;28;20028;-77
2024/02/02 03:29:41;;;;;;;26.98;8.68;;;;;;;;;;5070408;28;20123;-77
2024/02/02 03:32:08;;;;;;;35.60;10.00;;;;;;;;;;5072390;28;20063;-77
2024/02/02 03:34:34;;;;;;;29.30;9.70;;;;;;;;;;5074163;28;20013;-77
2024/02/02 03:37:02;;;;;;;27.17;9.93;;;;;;;;;;5073709;28;20143;-77
2024/02/02 03:39:28;;;;;;;22.02;8.35;;;;;;;;;;5074021;28;20029;-78
2024/02/02 03:41:54;;;;;;;29.55;10.40;;;;;;;;;;5073976;28;20031;-78
2024/02/02 03:44:20;;;;;;;33.05;11.07;;;;;;;;;;5073668;28;20029;-78
2024/02/02 03:46:46;;;;;;;28.48;8.57;;;;;;;;;;5073826;28;20028;-78
2024/02/02 03:49:12;;;;;;;36.50;12.27;;;;;;;;;;5073568;28;20044;-77
2024/02/02 03:51:38;;;;;;;36.38;12.57;;;;;;;;;;5073808;28;20028;-77
2024/02/02 03:54:05;;;;;;;33.55;12.45;;;;;;;;;;5075119;28;20028;-77
2024/02/02 03:56:31;;;;;;;31.63;11.93;;;;;;;;;;5073232;28;20118;-77
2024/02/02 03:58:57;;;;;;;27.20;10.43;;;;;;;;;;5073376;28;20032;-77
2024/02/02 04:01:23;;;;;;;21.15;8.50;;;;;;;;;;5074650;28;20025;-78
2024/02/02 04:03:50;;;;;;;23.75;10.05;;;;;;;;;;5073541;28;20029;-78
2024/02/02 04:06:16;;;;;;;28.42;10.10;;;;;;;;;;5073354;28;20055;-78
2024/02/02 04:08:42;;;;;;;44.42;13.95;;;;;;;;;;5073373;28;20052;-77
2024/02/02 04:11:08;;;;;;;28.52;11.85;;;;;;;;;;5073190;28;20046;-77
2024/02/02 04:13:34;;;;;;;31.67;10.90;;;;;;;;;;5074704;28;20107;-77
2024/02/02 04:16:00;;;;;;;32.55;10.38;;;;;;;;;;5074588;28;20028;-77
2024/02/02 04:18:26;;;;;;;30.48;10.75;;;;;;;;;;5073056;28;20067;-78
2024/02/02 04:20:53;;;;;;;32.88;10.73;;;;;;;;;;5074288;28;20411;-78
2024/02/02 04:23:19;;;;;;;42.55;11.25;;;;;;;;;;5072939;28;20025;-77
2024/02/02 04:25:45;;;;;;;34.30;10.88;;;;;;;;;;5073220;28;20075;-78
2024/02/02 04:28:11;;;;;;;28.33;9.45;;;;;;;;;;5072936;28;20024;-78
2024/02/02 04:30:37;;;;;;;32.05;11.43;;;;;;;;;;5073148;28;20320;-78
2024/02/02 04:33:04;;;;;;;35.63;9.93;;;;;;;;;;5072961;28;20021;-78
2024/02/02 04:35:34;;;;;;;23.73;9.45;;;;;;;;;;5072906;28;20082;-78
2024/02/02 04:38:01;;;;;;;25.15;8.90;;;;;;;;;;5073065;28;20032;-78
2024/02/02 04:40:27;;;;;;;33.47;8.93;;;;;;;;;;5072856;28;20025;-79
2024/02/02 04:42:53;;;;;;;30.80;10.75;;;;;;;;;;5072794;28;20047;-78
2024/02/02 04:45:19;;;;;;;20.05;7.38;;;;;;;;;;5071943;28;20334;-78
2024/02/02 04:47:45;;;;;;;30.33;10.48;;;;;;;;;;5078284;28;20017;-77
2024/02/02 04:50:11;;;;;;;26.15;9.75;;;;;;;;;;5082663;28;20042;-77
2024/02/02 04:52:37;;;;;;;20.17;8.15;;;;;;;;;;5077328;28;20035;-76
2024/02/02 04:55:03;;;;;;;32.03;8.90;;;;;;;;;;5073437;28;20460;-79
2024/02/02 04:57:29;;;;;;;37.67;10.30;;;;;;;;;;5072243;28;20551;-81
2024/02/02 04:59:55;;;;;;;23.73;9.40;;;;;;;;;;5072684;28;20048;-80
2024/02/02 05:02:21;;;;;;;25.35;8.60;;;;;;;;;;5072516;28;20025;-80
2024/02/02 05:04:47;;;;;;;25.38;8.10;;;;;;;;;;5072547;28;20062;-79
2024/02/02 05:07:14;;;;;;;21.00;7.57;;;;;;;;;;5071968;28;20049;-78
2024/02/02 05:09:40;;;;;;;28.02;9.25;;;;;;;;;;5072430;28;20027;-78
2024/02/02 05:12:07;;;;;;;29.33;9.73;;;;;;;;;;5073735;28;20096;-78
2024/02/02 05:14:33;;;;;;;26.83;7.57;;;;;;;;;;5072317;28;20109;-79
2024/02/02 05:16:59;;;;;;;23.95;6.95;;;;;;;;;;5072136;28;20116;-78
2024/02/02 05:19:25;;;;;;;29.70;7.95;;;;;;;;;;5071885;28;20029;-77
2024/02/02 05:21:51;;;;;;;23.33;9.02;;;;;;;;;;5073285;28;20021;-79
2024/02/02 05:24:17;;;;;;;25.52;6.97;;;;;;;;;;5071825;28;20376;-79
2024/02/02 05:26:43;;;;;;;28.60;8.02;;;;;;;;;;5072068;28;20021;-79
2024/02/02 05:29:09;;;;;;;25.83;6.53;;;;;;;;;;5073008;28;20021;-78
2024/02/02 05:31:36;;;;;;;23.80;6.88;;;;;;;;;;5071855;28;20067;-78
2024/02/02 05:34:02;;;;;;;20.70;6.47;;;;;;;;;;5073247;28;20029;-78
2024/02/02 05:36:28;;;;;;;28.25;6.82;;;;;;;;;;5071556;28;20157;-78
2024/02/02 05:38:54;;;;;;;28.08;8.43;;;;;;;;;;5071775;28;20025;-78
2024/02/02 05:41:20;;;;;;;25.48;7.47;;;;;;;;;;5071409;28;20028;-78
2024/02/02 05:43:46;;;;;;;21.65;6.38;;;;;;;;;;5071755;28;20027;-78
2024/02/02 05:46:12;;;;;;;26.20;6.13;;;;;;;;;;5071440;28;20483;-78
2024/02/02 05:48:38;;;;;;;20.83;6.65;;;;;;;;;;5071603;28;20107;-79
2024/02/02 05:51:04;;;;;;;21.35;6.55;;;;;;;;;;5071608;28;20044;-78
2024/02/02 05:53:30;;;;;;;24.13;6.13;;;;;;;;;;5071513;28;20127;-79
2024/02/02 05:55:56;;;;;;;22.85;5.25;;;;;;;;;;5071140;28;20028;-79
2024/02/02 05:58:22;;;;;;;25.35;6.32;;;;;;;;;;5071079;28;20380;-78
2024/02/02 06:00:49;;;;;;;26.27;7.50;;;;;;;;;;5071362;28;20035;-79
2024/02/02 06:03:15;;;;;;;33.20;6.38;;;;;;;;;;5071004;28;20020;-78
2024/02/02 06:05:41;;;;;;;23.58;6.70;;;;;;;;;;5071401;28;20031;-78
2024/02/02 06:08:07;;;;;;;30.50;6.72;;;;;;;;;;5070754;28;20488;-78
2024/02/02 06:10:33;;;;;;;27.77;6.50;;;;;;;;;;5071056;28;20029;-77
2024/02/02 06:13:00;;;;;;;18.20;6.00;;;;;;;;;;5072483;28;20020;-77
2024/02/02 06:15:26;;;;;;;22.52;5.55;;;;;;;;;;5072260;28;20019;-78
2024/02/02 06:17:52;;;;;;;24.90;6.82;;;;;;;;;;5071207;28;20127;-79
2024/02/02 06:20:18;;;;;;;33.78;6.43;;;;;;;;;;5071086;28;20047;-79
2024/02/02 06:22:44;;;;;;;28.70;6.90;;;;;;;;;;5072362;28;20066;-79
2024/02/02 06:25:10;;;;;;;30.35;6.70;;;;;;;;;;5071188;28;20414;-79
2024/02/02 06:27:37;;;;;;;29.85;6.93;;;;;;;;;;5070976;28;20032;-78
2024/02/02 06:30:03;;;;;;;22.65;7.28;;;;;;;;;;5072275;28;20109;-79
2024/02/02 06:32:30;;;;;;;29.17;7.38;;;;;;;;;;5070946;28;20602;-80
2024/02/02 06:34:56;;;;;;;21.38;5.30;;;;;;;;;;5071065;28;20070;-79
2024/02/02 06:37:27;;;;;;;30.80;6.25;;;;;;;;;;5070866;28;20028;-79
2024/02/02 06:39:54;;;;;;;31.17;7.07;;;;;;;;;;5071001;28;20075;-79
2024/02/02 06:42:20;;;;;;;24.55;8.23;;;;;;;;;;5071352;28;20028;-79
2024/02/02 06:44:48;;;;;;;30.85;7.45;;;;;;;;;;5071084;28;20038;-79
2024/02/02 06:47:14;;;;;;;41.53;9.18;;;;;;;;;;5070528;28;20028;-79
2024/02/02 06:49:40;;;;;;;23.85;5.95;;;;;;;;;;5070932;28;20048;-77
2024/02/02 06:52:06;;;;;;;32.28;7.40;;;;;;;;;;5070753;28;20024;-78
2024/02/02 06:54:32;;;;;;;33.45;8.00;;;;;;;;;;5070589;28;20020;-77
2024/02/02 06:56:58;;;;;;;27.05;6.70;;;;;;;;;;5070705;28;20040;-77
2024/02/02 06:59:24;;;;;;;34.97;9.40;;;;;;;;;;5070519;28;20028;-77
2024/02/02 07:01:50;;;;;;;31.58;7.20;;;;;;;;;;5072335;28;20095;-77
2024/02/02 07:04:16;;;;;;;25.90;7.70;;;;;;;;;;5070800;28;20105;-77
2024/02/02 07:06:43;;;;;;;32.15;7.32;;;;;;;;;;5071228;28;20028;-76
2024/02/02 07:09:28;;;;;;;28.38;6.57;;;;;;;;;;5081756;28;20132;-78
2024/02/02 07:11:56;;;;;;;29.20;7.10;;;;;;;;;;5089611;28;20027;-77
2024/02/02 07:14:45;;;;;;;29.23;6.80;;;;;;;;;;5086833;28;20036;-80
2024/02/02 07:17:32;;;;;;;27.63;6.13;;;;;;;;;;5073419;28;20071;-81
2024/02/02 07:19:58;;;;;;;24.08;6.80;;;;;;;;;;5074459;28;20036;-81
2024/02/02 07:22:41;;;;;;;26.88;7.10;;;;;;;;;;5074122;28;20024;-81
2024/02/02 07:25:23;;;;;;;28.48;7.88;;;;;;;;;;5074577;28;20025;-80
2024/02/02 07:27:54;;;;;;;27.50;7.82;;;;;;;;;;5074252;28;20042;-80
2024/02/02 07:30:35;;;;;;;29.70;8.43;;;;;;;;;;5074146;28;20096;-80
2024/02/02 07:33:01;;;;;;;31.55;7.82;;;;;;;;;;5075370;28;20021;-80
2024/02/02 07:35:30;;;;;;;26.88;6.82;;;;;;;;;;5074125;28;20029;-80
2024/02/02 07:37:56;;;;;;;35.65;10.25;;;;;;;;;;5075023;28;20473;-80
2024/02/02 07:40:31;;;;;;;24.27;8.25;;;;;;;;;;5073878;28;20525;-80
2024/02/02 07:42:57;;;;;;;50.28;11.20;;;;;;;;;;5075688;28;20052;-81
2024/02/02 07:45:23;;;;;;;33.30;9.90;;;;;;;;;;5073738;28;20029;-79
2024/02/02 07:47:49;;;;;;;47.30;16.23;;;;;;;;;;5074029;28;20031;-80
2024/02/02 07:50:15;;;;;;;46.50;14.60;;;;;;;;;;5073621;28;20111;-80
2024/02/02 07:52:41;;;;;;;35.47;9.98;;;;;;;;;;5073831;28;20025;-80
2024/02/02 07:55:08;;;;;;;30.13;9.68;;;;;;;;;;5073921;28;20021;-82
2024/02/02 07:57:34;;;;;;;39.22;10.88;;;;;;;;;;5073379;28;20036;-80
2024/02/02 08:00:00;;;;;;;48.03;13.23;;;;;;;;;;5073599;28;20040;-80
2024/02/02 08:02:26;;;;;;;33.08;10.70;;;;;;;;;;5073212;28;20085;-82
2024/02/02 08:04:52;;;;;;;25.48;11.15;;;;;;;;;;5073445;28;20028;-81
2024/02/02 08:07:18;;;;;;;41.65;13.50;;;;;;;;;;5073254;28;20028;-81
2024/02/02 08:09:44;;;;;;;35.55;12.80;;;;;;;;;;5073505;28;20060;-81
2024/02/02 08:12:10;;;;;;;38.55;12.35;;;;;;;;;;5073764;28;20021;-81
2024/02/02 08:14:38;;;;;;;41.05;15.40;;;;;;;;;;5073493;28;20020;-80
2024/02/02 08:17:07;;;;;;;38.90;14.98;;;;;;;;;;5075237;28;20039;-81
2024/02/02 08:19:33;;;;;;;34.78;14.63;;;;;;;;;;5071981;28;20020;-81
2024/02/02 08:21:59;;;;;;;34.15;14.77;;;;;;;;;;5072967;28;20541;-80
2024/02/02 08:24:25;;;;;;;50.47;17.98;;;;;;;;;;5072879;28;20044;-80
2024/02/02 08:26:51;;;;;;;40.67;15.45;;;;;;;;;;5073010;28;20036;-81
2024/02/02 08:29:17;;;;;;;45.65;15.48;;;;;;;;;;5073237;28;20017;-80
2024/02/02 08:31:46;;;;;;;40.40;17.63;;;;;;;;;;5073998;28;20021;-81
2024/02/02 08:34:12;;;;;;;45.83;16.00;;;;;;;;;;5073125;28;20020;-81
2024/02/02 08:36:39;;;;;;;29.38;13.45;;;;;;;;;;5072691;28;20036;-79
2024/02/02 08:39:06;;;;;;;44.13;15.88;;;;;;;;;;5072955;28;20484;-78
2024/02/02 08:41:32;;;;;;;44.95;16.08;;;;;;;;;;5072685;28;20017;-79
2024/02/02 08:43:58;;;;;;;48.72;17.10;;;;;;;;;;5072566;28;20086;-79
2024/02/02 08:46:24;;;;;;;33.05;13.65;;;;;;;;;;5072513;28;20025;-79
2024/02/02 08:48:51;;;;;;;31.85;15.25;;;;;;;;;;5072768;28;20020;-79
2024/02/02 08:51:20;;;;;;;40.97;13.73;;;;;;;;;;5072719;28;20160;-79
2024/02/02 08:53:46;;;;;;;33.17;13.20;;;;;;;;;;5072650;28;20020;-80
2024/02/02 08:56:12;;;;;;;30.15;14.73;;;;;;;;;;5073876;28;20028;-79
2024/02/02 08:58:39;;;;;;;44.17;14.15;;;;;;;;;;5072406;28;20031;-80
2024/02/02 09:01:05;;;;;;;36.20;15.45;;;;;;;;;;5072324;28;20116;-80
2024/02/02 09:03:44;;;;;;;39.83;13.60;;;;;;;;;;5072141;28;20067;-79
2024/02/02 09:06:39;;;;;;;25.02;8.60;;;;;;;;;;5072556;28;20033;-79
2024/02/02 09:09:06;;;;;;;39.17;13.63;;;;;;;;;;5072234;28;20053;-80
2024/02/02 09:11:32;;;;;;;27.42;11.98;;;;;;;;;;5072132;28;20133;-80
2024/02/02 09:14:07;;;;;;;36.50;14.55;;;;;;;;;;5072394;28;20112;-79
2024/02/02 09:16:44;;;;;;;35.45;15.00;;;;;;;;;;5071945;28;20056;-79
2024/02/02 09:19:17;;;;;;;41.05;15.45;;;;;;;;;;5072225;28;20033;-79
2024/02/02 09:21:43;;;;;;;39.10;14.88;;;;;;;;;;5073078;28;20098;-79
2024/02/02 09:24:32;;;;;;;35.35;13.88;;;;;;;;;;5073412;28;20457;-77
2024/02/02 09:26:58;;;;;;;46.03;14.97;;;;;;;;;;5071994;28;20036;-76
2024/02/02 09:29:24;;;;;;;32.35;12.50;;;;;;;;;;5075799;28;20017;-77
2024/02/02 09:31:50;;;;;;;27.15;10.57;;;;;;;;;;5075746;28;20051;-76
2024/02/02 09:34:20;;;;;;;32.88;13.90;;;;;;;;;;5076698;28;20178;-80
2024/02/02 09:36:46;;;;;;;37.23;15.53;;;;;;;;;;5071877;28;20136;-80
2024/02/02 09:39:19;;;;;;;44.85;17.08;;;;;;;;;;5071863;28;20021;-80
2024/02/02 09:41:54;;;;;;;32.00;13.50;;;;;;;;;;5071276;28;20044;-80
2024/02/02 09:44:27;;;;;;;46.70;15.90;;;;;;;;;;5071604;28;20029;-80
2024/02/02 09:47:03;;;;;;;41.47;18.05;;;;;;;;;;5071521;28;20029;-80
2024/02/02 09:49:48;;;;;;;47.88;19.52;;;;;;;;;;5071114;28;20016;-77
2024/02/02 09:52:23;;;;;;;46.63;18.23;;;;;;;;;;5071327;28;20021;-77
2024/02/02 09:55:07;;;;;;;48.80;21.48;;;;;;;;;;5071186;28;20021;-76
2024/02/02 09:57:42;;;;;;;47.60;19.52;;;;;;;;;;5070964;28;20383;-77
2024/02/02 10:00:26;;;;;;;56.40;19.48;;;;;;;;;;5071338;28;20020;-78
2024/02/02 10:03:07;;;;;;;56.65;19.50;;;;;;;;;;5071293;28;20539;-77
2024/02/02 10:06:09;;;;;;;47.53;18.60;;;;;;;;;;5070935;28;20020;-78
2024/02/02 10:08:38;;;;;;;41.85;17.13;;;;;;;;;;5069532;28;20512;-76
2024/02/02 10:11:07;;;;;;;40.30;18.45;;;;;;;;;;5067439;28;20068;-78
2024/02/02 10:13:50;;;;;;;32.10;16.00;;;;;;;;;;5071921;28;20478;-77
2024/02/02 10:16:27;;;;;;;44.85;20.05;;;;;;;;;;5070785;28;20391;-77
2024/02/02 10:19:11;;;;;;;57.15;20.35;;;;;;;;;;5072143;28;20473;-79
2024/02/02 10:21:40;;;;;;;50.47;21.85;;;;;;;;;;5070524;28;20025;-78
2024/02/02 10:24:09;;;;;;;46.60;19.25;;;;;;;;;;5070793;28;20028;-77
2024/02/02 10:26:43;;;;;;;47.47;20.30;;;;;;;;;;5070430;28;20035;-77
2024/02/02 10:29:09;;;;;;;48.58;15.25;;;;;;;;;;5070994;28;20020;-77
2024/02/02 10:31:53;;;;;;;53.55;19.88;;;;;;;;;;5071979;28;20032;-78
2024/02/02 10:34:54;;;;;;;55.42;22.02;;;;;;;;;;5072386;28;20056;-78
2024/02/02 10:37:33;;;;;;;40.58;18.90;;;;;;;;;;5070864;28;20098;-78
2024/02/02 10:40:06;;;;;;;48.88;19.40;;;;;;;;;;5071914;28;20525;-77
2024/02/02 10:42:51;;;;;;;49.83;19.85;;;;;;;;;;5069813;28;20025;-77
2024/02/02 10:45:26;;;;;;;43.25;18.38;;;;;;;;;;5070799;28;20028;-78
2024/02/02 10:48:08;;;;;;;48.20;21.25;;;;;;;;;;5070794;28;20036;-78
2024/02/02 10:50:49;;;;;;;36.42;16.75;;;;;;;;;;5070570;28;20483;-77
2024/02/02 10:53:21;;;;;;;41.47;18.98;;;;;;;;;;5072287;28;20029;-78
2024/02/02 10:56:05;;;;;;;36.05;16.92;;;;;;;;;;5070381;28;20041;-77
2024/02/02 10:58:31;;;;;;;45.33;20.13;;;;;;;;;;5070501;28;20024;-77
2024/02/02 11:01:08;;;;;;;39.22;17.15;;;;;;;;;;5070623;28;20029;-78
2024/02/02 11:03:36;;;;;;;45.88;19.33;;;;;;;;;;5070342;28;20052;-78
2024/02/02 11:06:06;;;;;;;31.70;15.45;;;;;;;;;;5070560;28;20521;-78
2024/02/02 11:08:34;;;;;;;48.85;19.20;;;;;;;;;;5070014;28;20084;-78
2024/02/02 11:11:04;;;;;;;51.35;19.75;;;;;;;;;;5070666;28;20028;-81
2024/02/02 11:13:33;;;;;;;39.92;18.95;;;;;;;;;;5070527;28;20029;-85
2024/02/02 11:15:59;;;;;;;37.05;18.30;;;;;;;;;;5071279;28;20135;-85
2024/02/02 11:18:37;;;;;;;47.10;17.13;;;;;;;;;;5070732;28;20048;-85
2024/02/02 11:21:18;;;;;;;48.13;22.92;;;;;;;;;;5070639;28;20444;-84
2024/02/02 11:23:44;;;;;;;46.75;20.08;;;;;;;;;;5070643;28;20297;-85
2024/02/02 11:26:20;;;;;;;47.35;21.38;;;;;;;;;;5071053;28;20625;-84
2024/02/02 11:29:02;;;;;;;53.00;21.60;;;;;;;;;;5070654;28;20555;-85
2024/02/02 11:31:42;;;;;;;39.53;19.58;;;;;;;;;;5070626;28;20021;-85
2024/02/02 11:34:26;;;;;;;44.45;19.30;;;;;;;;;;5070980;28;20028;-86
2024/02/02 11:36:56;;;;;;;45.58;22.70;;;;;;;;;;5070890;28;20033;-85
2024/02/02 11:39:27;;;;;;;40.35;18.65;;;;;;;;;;5070800;28;20407;-85
2024/02/02 11:41:54;;;;;;;48.17;20.98;;;;;;;;;;5071205;28;20038;-85
2024/02/02 11:44:21;;;;;;;41.85;21.48;;;;;;;;;;5072208;28;20029;-85
2024/02/02 11:46:48;;;;;;;38.67;17.77;;;;;;;;;;5087926;28;20024;-85
2024/02/02 11:49:21;;;;;;;48.28;21.55;;;;;;;;;;5096200;28;20016;-84
2024/02/02 11:51:53;;;;;;;39.78;16.77;;;;;;;;;;5095398;28;20024;-85
2024/02/02 11:54:22;;;;;;;45.90;19.70;;;;;;;;;;5089390;28;20107;-84
2024/02/02 11:56:51;;;;;;;33.95;15.90;;;;;;;;;;5077491;28;20043;-84
2024/02/02 11:59:20;;;;;;;41.10;18.30;;;;;;;;;;5075058;28;20487;-86
2024/02/02 12:01:49;;;;;;;44.53;20.50;;;;;;;;;;5075399;28;20020;-85
2024/02/02 12:04:38;;;;;;;38.30;17.70;;;;;;;;;;5074986;28;20016;-85
2024/02/02 12:07:11;;;;;;;43.55;19.58;;;;;;;;;;5074691;28;20028;-86
2024/02/02 12:09:46;;;;;;;44.15;19.00;;;;;;;;;;5073357;28;20131;-85
2024/02/02 12:12:33;;;;;;;45.63;17.73;;;;;;;;;;5073539;28;20048;-86
2024/02/02 12:14:59;;;;;;;40.10;19.48;;;;;;;;;;5073685;28;20028;-86
2024/02/02 12:17:26;;;;;;;41.10;18.00;;;;;;;;;;5073463;28;20388;-86
2024/02/02 12:19:52;;;;;;;46.83;21.30;;;;;;;;;;5073704;28;20029;-86
2024/02/02 12:22:19;;;;;;;47.72;20.55;;;;;;;;;;5073466;28;20357;-85
2024/02/02 12:24:45;;;;;;;43.35;19.77;;;;;;;;;;5072914;28;20055;-86
2024/02/02 12:27:12;;;;;;;50.40;23.42;;;;;;;;;;5073266;28;20040;-86
2024/02/02 12:29:38;;;;;;;36.47;17.15;;;;;;;;;;5073401;28;20039;-86
2024/02/02 12:32:05;;;;;;;39.78;18.30;;;;;;;;;;5073310;28;20024;-87
2024/02/02 12:34:32;;;;;;;51.90;22.05;;;;;;;;;;5073109;28;20531;-86
2024/02/02 12:36:59;;;;;;;40.58;20.80;;;;;;;;;;5073201;28;20392;-86
2024/02/02 12:39:31;;;;;;;41.97;18.60;;;;;;;;;;5072918;28;20017;-84
2024/02/02 12:41:58;;;;;;;56.70;23.48;;;;;;;;;;5073118;28;20028;-86
2024/02/02 12:44:26;;;;;;;54.30;20.98;;;;;;;;;;5072867;28;20051;-85
2024/02/02 12:46:52;;;;;;;50.38;24.20;;;;;;;;;;5072823;28;20379;-86
2024/02/02 12:49:19;;;;;;;51.78;24.10;;;;;;;;;;5073339;28;20021;-85
2024/02/02 12:51:45;;;;;;;44.17;21.60;;;;;;;;;;5072766;28;20377;-86
2024/02/02 12:54:11;;;;;;;52.35;24.70;;;;;;;;;;5073151;28;20025;-86
2024/02/02 12:56:37;;;;;;;48.22;20.50;;;;;;;;;;5072767;28;20085;-86
2024/02/02 12:59:06;;;;;;;53.58;23.08;;;;;;;;;;5072829;28;20031;-86
2024/02/02 13:01:36;;;;;;;42.55;20.38;;;;;;;;;;5072684;28;20022;-86
2024/02/02 13:04:02;;;;;;;39.83;20.20;;;;;;;;;;5073019;28;20028;-86
2024/02/02 13:06:28;;;;;;;53.30;22.73;;;;;;;;;;5072912;28;20025;-85
2024/02/02 13:09:17;;;;;;;50.25;22.35;;;;;;;;;;5072499;28;20040;-86
2024/02/02 13:11:43;;;;;;;49.17;21.52;;;;;;;;;;5056230;28;20450;-86
2024/02/02 13:14:09;;;;;;;61.17;24.13;;;;;;;;;;5072612;28;20028;-86
2024/02/02 13:16:35;;;;;;;55.15;23.67;;;;;;;;;;5072388;28;20051;-87
2024/02/02 13:19:05;;;;;;;55.30;23.30;;;;;;;;;;5072809;28;20047;-87
2024/02/02 13:21:35;;;;;;;56.38;23.25;;;;;;;;;;5072127;28;20476;-87
2024/02/02 13:24:04;;;;;;;58.63;28.23;;;;;;;;;;5073657;28;20020;-88
2024/02/02 13:26:37;;;;;;;63.28;26.58;;;;;;;;;;5074366;28;20029;-87
2024/02/02 13:29:07;;;;;;;49.67;22.95;;;;;;;;;;5073728;28;20135;-87
2024/02/02 13:31:37;;;;;;;53.70;25.65;;;;;;;;;;5073545;28;20032;-86
2024/02/02 13:34:04;;;;;;;67.28;30.00;;;;;;;;;;5073534;28;20029;-87
2024/02/02 13:36:32;;;;;;;70.25;30.13;;;;;;;;;;5075422;28;20078;-87
2024/02/02 13:39:02;;;;;;;69.65;32.25;;;;;;;;;;5073695;28;20021;-86
2024/02/02 13:41:33;;;;;;;70.63;32.17;;;;;;;;;;5073591;28;20020;-83
2024/02/02 13:44:04;;;;;;;64.70;30.10;;;;;;;;;;5073533;28;20482;-86
2024/02/02 13:46:35;;;;;;;63.53;29.33;;;;;;;;;;5073554;28;20028;-86
2024/02/02 13:49:05;;;;;;;83.28;31.85;;;;;;;;;;5073091;28;20684;-86
2024/02/02 13:51:36;;;;;;;;;;;;;;;;;;5073570;28;20024;-85
2024/02/02 13:54:04;;;;;;;65.65;29.98;;;;;;;;;;5073563;28;19912;-86
2024/02/02 13:56:30;;;;;;;70.15;32.67;;;;;;;;;;5073075;28;20098;-85
2024/02/02 13:58:56;;;;;;;68.45;30.70;;;;;;;;;;5074254;28;20031;-86
2024/02/02 14:01:24;;;;;;;62.72;27.23;;;;;;;;;;5076435;28;20430;-86
2024/02/02 14:03:51;;;;;;;67.40;30.60;;;;;;;;;;5095934;28;20029;-85
2024/02/02 14:06:17;;;;;;;65.65;32.00;;;;;;;;;;5096774;28;20023;-86
2024/02/02 14:08:44;;;;;;;61.17;29.17;;;;;;;;;;5096243;28;20040;-85
2024/02/02 14:11:26;;;;;;;72.38;32.33;;;;;;;;;;5093366;28;20080;-85
2024/02/02 14:13:53;;;;;;;59.97;30.48;;;;;;;;;;5076012;28;20144;-84
2024/02/02 14:16:20;;;;;;;71.45;30.48;;;;;;;;;;5073853;28;20036;-86
2024/02/02 14:18:46;;;;;;;65.35;30.42;;;;;;;;;;5073067;28;20044;-86
2024/02/02 14:21:18;;;;;;;59.60;29.42;;;;;;;;;;5056214;28;20039;-85
2024/02/02 14:23:44;;;;;;;65.47;30.02;;;;;;;;;;5072600;28;20024;-87
2024/02/02 14:26:11;;;;;;;58.50;30.50;;;;;;;;;;5071876;28;20071;-86
2024/02/02 14:28:37;;;;;;;57.05;30.25;;;;;;;;;;5071695;28;20025;-85
2024/02/02 14:31:08;;;;;;;54.03;27.83;;;;;;;;;;5054986;28;20067;-85
2024/02/02 14:33:34;;;;;;;62.65;30.35;;;;;;;;;;5071648;28;20029;-85